sensor_id;sensor_type;location;lat;lon;timestamp;temperature;humidity
27978;DHT22;15314;49.248;6.968;2024-02-26T00:00:03;9.20;95.60
27978;DHT22;15314;49.248;6.968;2024-02-26T00:01:23;9.20;95.80
27978;DHT22;15314;49.248;6.968;2024-02-26T00:02:43;9.10;95.60
27978;DHT22;15314;49.248;6.968;2024-02-26T00:04:03;9.00;95.90
27978;DHT22;15314;49.248;6.968;2024-02-26T00:05:22;9.00;95.90
27978;DHT22;15314;49.248;6.968;2024-02-26T00:06:41;9.00;96.30
27978;DHT22;15314;49.248;6.968;2024-02-26T00:08:00;9.00;96.40
27978;DHT22;15314;49.248;6.968;2024-02-26T00:09:19;9.00;96.70
27978;DHT22;15314;49.248;6.968;2024-02-26T00:10:39;8.90;96.30
27978;DHT22;15314;49.248;6.968;2024-02-26T00:11:58;9.00;97.10
27978;DHT22;15314;49.248;6.968;2024-02-26T00:13:18;8.90;97.40
27978;DHT22;15314;49.248;6.968;2024-02-26T00:14:39;8.80;97.30
27978;DHT22;15314;49.248;6.968;2024-02-26T00:16:00;8.70;97.60
27978;DHT22;15314;49.248;6.968;2024-02-26T00:17:19;8.70;98.10
27978;DHT22;15314;49.248;6.968;2024-02-26T00:18:38;8.60;98.10
27978;DHT22;15314;49.248;6.968;2024-02-26T00:19:58;8.60;98.40
27978;DHT22;15314;49.248;6.968;2024-02-26T00:21:17;8.60;98.50
27978;DHT22;15314;49.248;6.968;2024-02-26T00:22:36;8.60;98.70
27978;DHT22;15314;49.248;6.968;2024-02-26T00:23:56;8.60;98.70
27978;DHT22;15314;49.248;6.968;2024-02-26T00:25:15;8.60;99.00
27978;DHT22;15314;49.248;6.968;2024-02-26T00:26:34;8.60;98.90
27978;DHT22;15314;49.248;6.968;2024-02-26T00:27:53;8.60;99.20
27978;DHT22;15314;49.248;6.968;2024-02-26T00:29:12;8.60;99.40
27978;DHT22;15314;49.248;6.968;2024-02-26T00:30:31;8.50;99.60
27978;DHT22;15314;49.248;6.968;2024-02-26T00:31:51;8.50;99.90
27978;DHT22;15314;49.248;6.968;2024-02-26T00:33:11;8.50;99.90
27978;DHT22;15314;49.248;6.968;2024-02-26T00:34:30;8.40;99.90
27978;DHT22;15314;49.248;6.968;2024-02-26T00:35:49;8.40;99.90
27978;DHT22;15314;49.248;6.968;2024-02-26T00:37:08;8.50;99.90
27978;DHT22;15314;49.248;6.968;2024-02-26T00:38:28;8.50;99.90
27978;DHT22;15314;49.248;6.968;2024-02-26T00:39:46;8.50;99.90
27978;DHT22;15314;49.248;6.968;2024-02-26T00:41:06;8.50;99.90
27978;DHT22;15314;49.248;6.968;2024-02-26T00:42:25;8.50;99.90
27978;DHT22;15314;49.248;6.968;2024-02-26T00:43:44;8.50;99.90
27978;DHT22;15314;49.248;6.968;2024-02-26T00:45:03;8.40;99.90
27978;DHT22;15314;49.248;6.968;2024-02-26T00:46:23;8.40;99.90
27978;DHT22;15314;49.248;6.968;2024-02-26T00:47:42;8.40;99.90
27978;DHT22;15314;49.248;6.968;2024-02-26T00:49:03;8.30;99.90
27978;DHT22;15314;49.248;6.968;2024-02-26T00:50:22;8.20;99.90
27978;DHT22;15314;49.248;6.968;2024-02-26T00:51:41;8.20;99.90
27978;DHT22;15314;49.248;6.968;2024-02-26T00:53:01;8.20;99.90
27978;DHT22;15314;49.248;6.968;2024-02-26T00:54:21;8.10;99.90
27978;DHT22;15314;49.248;6.968;2024-02-26T00:55:40;8.20;99.90
27978;DHT22;15314;49.248;6.968;2024-02-26T00:56:59;8.10;99.90
27978;DHT22;15314;49.248;6.968;2024-02-26T00:58:18;8.10;99.90
27978;DHT22;15314;49.248;6.968;2024-02-26T00:59:38;8.00;99.90
27978;DHT22;15314;49.248;6.968;2024-02-26T01:00:57;7.90;99.90
27978;DHT22;15314;49.248;6.968;2024-02-26T01:02:16;7.80;99.90
27978;DHT22;15314;49.248;6.968;2024-02-26T01:03:35;7.80;99.90
27978;DHT22;15314;49.248;6.968;2024-02-26T01:04:54;7.80;99.90
27978;DHT22;15314;49.248;6.968;2024-02-26T01:06:14;7.80;99.90
27978;DHT22;15314;49.248;6.968;2024-02-26T01:07:33;7.70;99.90
27978;DHT22;15314;49.248;6.968;2024-02-26T01:08:55;7.70;99.90
27978;DHT22;15314;49.248;6.968;2024-02-26T01:10:14;7.70;99.90
27978;DHT22;15314;49.248;6.968;2024-02-26T01:11:33;7.70;99.90
27978;DHT22;15314;49.248;6.968;2024-02-26T01:12:52;7.70;99.90
27978;DHT22;15314;49.248;6.968;2024-02-26T01:14:11;7.70;99.90
27978;DHT22;15314;49.248;6.968;2024-02-26T01:15:30;7.70;99.90
27978;DHT22;15314;49.248;6.968;2024-02-26T01:16:49;7.60;99.90
27978;DHT22;15314;49.248;6.968;2024-02-26T01:18:08;7.70;99.90
27978;DHT22;15314;49.248;6.968;2024-02-26T01:19:27;7.70;99.90
27978;DHT22;15314;49.248;6.968;2024-02-26T01:20:47;7.50;99.90
27978;DHT22;15314;49.248;6.968;2024-02-26T01:22:06;7.60;99.90
27978;DHT22;15314;49.248;6.968;2024-02-26T01:23:25;7.60;99.90
27978;DHT22;15314;49.248;6.968;2024-02-26T01:24:45;7.50;99.90
27978;DHT22;15314;49.248;6.968;2024-02-26T01:26:04;7.60;99.90
27978;DHT22;15314;49.248;6.968;2024-02-26T01:27:23;7.50;99.90
27978;DHT22;15314;49.248;6.968;2024-02-26T01:28:45;7.50;99.90
27978;DHT22;15314;49.248;6.968;2024-02-26T01:30:05;7.50;99.90
27978;DHT22;15314;49.248;6.968;2024-02-26T01:31:25;7.50;99.90
27978;DHT22;15314;49.248;6.968;2024-02-26T01:32:44;7.40;99.90
27978;DHT22;15314;49.248;6.968;2024-02-26T01:34:03;7.40;99.90
27978;DHT22;15314;49.248;6.968;2024-02-26T01:35:22;7.40;99.90
27978;DHT22;15314;49.248;6.968;2024-02-26T01:36:41;7.40;99.90
27978;DHT22;15314;49.248;6.968;2024-02-26T01:38:00;7.30;99.90
27978;DHT22;15314;49.248;6.968;2024-02-26T01:39:19;7.30;99.90
27978;DHT22;15314;49.248;6.968;2024-02-26T01:40:39;7.30;99.90
27978;DHT22;15314;49.248;6.968;2024-02-26T01:41:58;7.30;99.90
27978;DHT22;15314;49.248;6.968;2024-02-26T01:43:17;7.30;99.90
27978;DHT22;15314;49.248;6.968;2024-02-26T01:44:36;7.30;99.90
27978;DHT22;15314;49.248;6.968;2024-02-26T01:45:57;7.30;99.90
27978;DHT22;15314;49.248;6.968;2024-02-26T01:47:17;7.40;99.90
27978;DHT22;15314;49.248;6.968;2024-02-26T01:48:36;7.40;99.90
27978;DHT22;15314;49.248;6.968;2024-02-26T01:49:56;7.40;99.90
27978;DHT22;15314;49.248;6.968;2024-02-26T01:51:15;7.30;99.90
27978;DHT22;15314;49.248;6.968;2024-02-26T01:52:36;7.40;99.90
27978;DHT22;15314;49.248;6.968;2024-02-26T01:53:55;7.40;99.90
27978;DHT22;15314;49.248;6.968;2024-02-26T01:55:15;7.40;99.90
27978;DHT22;15314;49.248;6.968;2024-02-26T01:56:37;7.30;99.90
27978;DHT22;15314;49.248;6.968;2024-02-26T01:57:57;7.40;99.90
27978;DHT22;15314;49.248;6.968;2024-02-26T01:59:17;7.30;99.90
27978;DHT22;15314;49.248;6.968;2024-02-26T02:00:36;7.30;99.90
27978;DHT22;15314;49.248;6.968;2024-02-26T02:01:58;7.30;99.90
27978;DHT22;15314;49.248;6.968;2024-02-26T02:03:17;7.20;99.90
27978;DHT22;15314;49.248;6.968;2024-02-26T02:04:38;7.20;99.90
27978;DHT22;15314;49.248;6.968;2024-02-26T02:05:57;7.30;99.90
27978;DHT22;15314;49.248;6.968;2024-02-26T02:07:18;7.30;99.90
27978;DHT22;15314;49.248;6.968;2024-02-26T02:08:38;7.30;99.90
27978;DHT22;15314;49.248;6.968;2024-02-26T02:09:58;7.20;99.90
27978;DHT22;15314;49.248;6.968;2024-02-26T02:11:18;7.20;99.90
27978;DHT22;15314;49.248;6.968;2024-02-26T02:12:38;7.20;99.90
27978;DHT22;15314;49.248;6.968;2024-02-26T02:13:59;7.10;99.90
27978;DHT22;15314;49.248;6.968;2024-02-26T02:15:18;7.10;99.90
27978;DHT22;15314;49.248;6.968;2024-02-26T02:16:37;7.10;99.90
27978;DHT22;15314;49.248;6.968;2024-02-26T02:17:56;7.10;99.90
27978;DHT22;15314;49.248;6.968;2024-02-26T02:19:15;7.00;99.90
27978;DHT22;15314;49.248;6.968;2024-02-26T02:20:35;7.00;99.90
27978;DHT22;15314;49.248;6.968;2024-02-26T02:21:54;7.00;99.90
27978;DHT22;15314;49.248;6.968;2024-02-26T02:23:13;7.00;99.90
27978;DHT22;15314;49.248;6.968;2024-02-26T02:24:33;7.00;99.90
27978;DHT22;15314;49.248;6.968;2024-02-26T02:25:52;6.90;99.90
27978;DHT22;15314;49.248;6.968;2024-02-26T02:27:12;6.90;99.90
27978;DHT22;15314;49.248;6.968;2024-02-26T02:28:32;6.90;99.90
27978;DHT22;15314;49.248;6.968;2024-02-26T02:29:51;6.90;99.90
27978;DHT22;15314;49.248;6.968;2024-02-26T02:31:11;6.90;99.90
27978;DHT22;15314;49.248;6.968;2024-02-26T02:32:31;6.90;99.90
27978;DHT22;15314;49.248;6.968;2024-02-26T02:33:50;7.00;99.90
27978;DHT22;15314;49.248;6.968;2024-02-26T02:35:10;6.90;99.90
27978;DHT22;15314;49.248;6.968;2024-02-26T02:36:29;6.90;99.90
27978;DHT22;15314;49.248;6.968;2024-02-26T02:37:49;6.90;99.90
27978;DHT22;15314;49.248;6.968;2024-02-26T02:39:08;6.90;99.90
27978;DHT22;15314;49.248;6.968;2024-02-26T02:40:27;6.90;99.90
27978;DHT22;15314;49.248;6.968;2024-02-26T02:41:47;6.80;99.90
27978;DHT22;15314;49.248;6.968;2024-02-26T02:43:06;6.70;99.90
27978;DHT22;15314;49.248;6.968;2024-02-26T02:44:25;6.80;99.90
27978;DHT22;15314;49.248;6.968;2024-02-26T02:45:44;6.80;99.90
27978;DHT22;15314;49.248;6.968;2024-02-26T02:47:03;6.80;99.90
27978;DHT22;15314;49.248;6.968;2024-02-26T02:48:22;6.80;99.90
27978;DHT22;15314;49.248;6.968;2024-02-26T02:49:42;6.80;99.90
27978;DHT22;15314;49.248;6.968;2024-02-26T02:51:01;6.80;99.90
27978;DHT22;15314;49.248;6.968;2024-02-26T02:52:20;6.90;99.90
27978;DHT22;15314;49.248;6.968;2024-02-26T02:53:40;6.90;99.90
27978;DHT22;15314;49.248;6.968;2024-02-26T02:54:59;6.90;99.90
27978;DHT22;15314;49.248;6.968;2024-02-26T02:56:18;7.00;99.90
27978;DHT22;15314;49.248;6.968;2024-02-26T02:57:38;7.00;99.90
27978;DHT22;15314;49.248;6.968;2024-02-26T02:59:00;7.00;99.90
27978;DHT22;15314;49.248;6.968;2024-02-26T03:00:19;7.00;99.90
27978;DHT22;15314;49.248;6.968;2024-02-26T03:01:38;7.00;99.90
27978;DHT22;15314;49.248;6.968;2024-02-26T03:02:57;7.00;99.90
27978;DHT22;15314;49.248;6.968;2024-02-26T03:04:16;7.00;99.90
27978;DHT22;15314;49.248;6.968;2024-02-26T03:05:35;7.10;99.90
27978;DHT22;15314;49.248;6.968;2024-02-26T03:06:55;7.10;99.90
27978;DHT22;15314;49.248;6.968;2024-02-26T03:08:14;7.10;99.90
27978;DHT22;15314;49.248;6.968;2024-02-26T03:09:33;7.20;99.90
27978;DHT22;15314;49.248;6.968;2024-02-26T03:10:53;7.30;99.90
27978;DHT22;15314;49.248;6.968;2024-02-26T03:12:13;7.30;99.90
27978;DHT22;15314;49.248;6.968;2024-02-26T03:13:32;7.50;99.90
27978;DHT22;15314;49.248;6.968;2024-02-26T03:14:51;7.50;99.90
27978;DHT22;15314;49.248;6.968;2024-02-26T03:16:13;7.50;99.90
27978;DHT22;15314;49.248;6.968;2024-02-26T03:17:32;7.60;99.90
27978;DHT22;15314;49.248;6.968;2024-02-26T03:18:51;7.60;99.90
27978;DHT22;15314;49.248;6.968;2024-02-26T03:20:10;7.60;99.90
27978;DHT22;15314;49.248;6.968;2024-02-26T03:21:30;7.60;99.90
27978;DHT22;15314;49.248;6.968;2024-02-26T03:22:49;7.60;99.90
27978;DHT22;15314;49.248;6.968;2024-02-26T03:24:08;7.60;99.90
27978;DHT22;15314;49.248;6.968;2024-02-26T03:25:31;7.60;99.90
27978;DHT22;15314;49.248;6.968;2024-02-26T03:26:50;7.60;99.90
27978;DHT22;15314;49.248;6.968;2024-02-26T03:28:10;7.60;99.90
27978;DHT22;15314;49.248;6.968;2024-02-26T03:29:30;7.80;99.90
27978;DHT22;15314;49.248;6.968;2024-02-26T03:30:50;7.60;99.90
27978;DHT22;15314;49.248;6.968;2024-02-26T03:32:09;7.50;99.90
27978;DHT22;15314;49.248;6.968;2024-02-26T03:33:28;7.60;99.90
27978;DHT22;15314;49.248;6.968;2024-02-26T03:34:47;7.60;99.90
27978;DHT22;15314;49.248;6.968;2024-02-26T03:36:06;7.50;99.90
27978;DHT22;15314;49.248;6.968;2024-02-26T03:37:26;7.50;99.90
27978;DHT22;15314;49.248;6.968;2024-02-26T03:38:45;7.40;99.90
27978;DHT22;15314;49.248;6.968;2024-02-26T03:40:05;7.40;99.90
27978;DHT22;15314;49.248;6.968;2024-02-26T03:41:25;7.40;99.90
27978;DHT22;15314;49.248;6.968;2024-02-26T03:42:45;7.40;99.90
27978;DHT22;15314;49.248;6.968;2024-02-26T03:44:05;7.30;99.90
27978;DHT22;15314;49.248;6.968;2024-02-26T03:45:24;7.40;99.90
27978;DHT22;15314;49.248;6.968;2024-02-26T03:46:44;7.30;99.90
27978;DHT22;15314;49.248;6.968;2024-02-26T03:48:04;7.30;99.90
27978;DHT22;15314;49.248;6.968;2024-02-26T03:49:23;7.30;99.90
27978;DHT22;15314;49.248;6.968;2024-02-26T03:50:42;7.30;99.90
27978;DHT22;15314;49.248;6.968;2024-02-26T03:52:02;7.40;99.90
27978;DHT22;15314;49.248;6.968;2024-02-26T03:53:21;7.40;99.90
27978;DHT22;15314;49.248;6.968;2024-02-26T03:54:41;7.50;99.90
27978;DHT22;15314;49.248;6.968;2024-02-26T03:56:04;7.50;99.90
27978;DHT22;15314;49.248;6.968;2024-02-26T03:57:23;7.50;99.90
27978;DHT22;15314;49.248;6.968;2024-02-26T03:58:42;7.50;99.90
27978;DHT22;15314;49.248;6.968;2024-02-26T04:00:01;7.50;99.90
27978;DHT22;15314;49.248;6.968;2024-02-26T04:01:21;7.50;99.90
27978;DHT22;15314;49.248;6.968;2024-02-26T04:02:40;7.50;99.90
27978;DHT22;15314;49.248;6.968;2024-02-26T04:03:59;7.60;99.90
27978;DHT22;15314;49.248;6.968;2024-02-26T04:05:18;7.60;99.90
27978;DHT22;15314;49.248;6.968;2024-02-26T04:06:37;7.60;99.90
27978;DHT22;15314;49.248;6.968;2024-02-26T04:07:56;7.60;99.90
27978;DHT22;15314;49.248;6.968;2024-02-26T04:09:16;7.60;99.90
27978;DHT22;15314;49.248;6.968;2024-02-26T04:10:35;7.70;99.90
27978;DHT22;15314;49.248;6.968;2024-02-26T04:11:56;7.60;99.90
27978;DHT22;15314;49.248;6.968;2024-02-26T04:13:17;7.70;99.90
27978;DHT22;15314;49.248;6.968;2024-02-26T04:14:36;7.70;99.90
27978;DHT22;15314;49.248;6.968;2024-02-26T04:15:55;7.60;99.90
27978;DHT22;15314;49.248;6.968;2024-02-26T04:17:16;7.60;99.90
27978;DHT22;15314;49.248;6.968;2024-02-26T04:18:37;7.50;99.90
27978;DHT22;15314;49.248;6.968;2024-02-26T04:19:56;7.50;99.90
27978;DHT22;15314;49.248;6.968;2024-02-26T04:21:15;7.50;99.90
27978;DHT22;15314;49.248;6.968;2024-02-26T04:22:35;7.50;99.90
27978;DHT22;15314;49.248;6.968;2024-02-26T04:23:54;7.50;99.90
27978;DHT22;15314;49.248;6.968;2024-02-26T04:25:19;7.50;99.90
27978;DHT22;15314;49.248;6.968;2024-02-26T04:26:38;7.40;99.90
27978;DHT22;15314;49.248;6.968;2024-02-26T04:27:58;7.40;99.90
27978;DHT22;15314;49.248;6.968;2024-02-26T04:29:17;7.40;99.90
27978;DHT22;15314;49.248;6.968;2024-02-26T04:30:37;7.50;99.90
27978;DHT22;15314;49.248;6.968;2024-02-26T04:31:56;7.50;99.90
27978;DHT22;15314;49.248;6.968;2024-02-26T04:33:15;7.50;99.90
27978;DHT22;15314;49.248;6.968;2024-02-26T04:34:35;7.50;99.90
27978;DHT22;15314;49.248;6.968;2024-02-26T04:35:55;7.60;99.90
27978;DHT22;15314;49.248;6.968;2024-02-26T04:37:14;7.50;99.90
27978;DHT22;15314;49.248;6.968;2024-02-26T04:38:33;7.60;99.90
27978;DHT22;15314;49.248;6.968;2024-02-26T04:39:53;7.60;99.90
27978;DHT22;15314;49.248;6.968;2024-02-26T04:41:12;7.60;99.90
27978;DHT22;15314;49.248;6.968;2024-02-26T04:42:31;7.70;99.90
27978;DHT22;15314;49.248;6.968;2024-02-26T04:43:50;7.70;99.90
27978;DHT22;15314;49.248;6.968;2024-02-26T04:45:09;7.70;99.90
27978;DHT22;15314;49.248;6.968;2024-02-26T04:46:28;7.80;99.90
27978;DHT22;15314;49.248;6.968;2024-02-26T04:47:47;7.80;99.90
27978;DHT22;15314;49.248;6.968;2024-02-26T04:49:06;7.70;99.90
27978;DHT22;15314;49.248;6.968;2024-02-26T04:50:26;7.80;99.90
27978;DHT22;15314;49.248;6.968;2024-02-26T04:51:45;7.70;99.90
27978;DHT22;15314;49.248;6.968;2024-02-26T04:53:07;7.70;99.90
27978;DHT22;15314;49.248;6.968;2024-02-26T04:54:26;7.70;99.90
27978;DHT22;15314;49.248;6.968;2024-02-26T04:55:45;7.70;99.90
27978;DHT22;15314;49.248;6.968;2024-02-26T04:57:04;7.70;99.90
27978;DHT22;15314;49.248;6.968;2024-02-26T04:58:23;7.70;99.90
27978;DHT22;15314;49.248;6.968;2024-02-26T04:59:42;7.80;99.90
27978;DHT22;15314;49.248;6.968;2024-02-26T05:01:03;7.80;99.90
27978;DHT22;15314;49.248;6.968;2024-02-26T05:02:22;7.80;99.90
27978;DHT22;15314;49.248;6.968;2024-02-26T05:03:42;7.80;99.90
27978;DHT22;15314;49.248;6.968;2024-02-26T05:05:01;7.70;99.90
27978;DHT22;15314;49.248;6.968;2024-02-26T05:06:20;7.70;99.90
27978;DHT22;15314;49.248;6.968;2024-02-26T05:07:40;7.70;99.90
27978;DHT22;15314;49.248;6.968;2024-02-26T05:09:00;7.70;99.90
27978;DHT22;15314;49.248;6.968;2024-02-26T05:10:19;7.70;99.90
27978;DHT22;15314;49.248;6.968;2024-02-26T05:11:38;7.80;99.90
27978;DHT22;15314;49.248;6.968;2024-02-26T05:12:57;7.80;99.90
27978;DHT22;15314;49.248;6.968;2024-02-26T05:14:16;7.80;99.90
27978;DHT22;15314;49.248;6.968;2024-02-26T05:15:36;7.80;99.90
27978;DHT22;15314;49.248;6.968;2024-02-26T05:16:55;7.90;99.90
27978;DHT22;15314;49.248;6.968;2024-02-26T05:18:15;7.90;99.90
27978;DHT22;15314;49.248;6.968;2024-02-26T05:19:34;7.90;99.90
27978;DHT22;15314;49.248;6.968;2024-02-26T05:20:53;7.90;99.90
27978;DHT22;15314;49.248;6.968;2024-02-26T05:22:12;7.80;99.90
27978;DHT22;15314;49.248;6.968;2024-02-26T05:23:31;7.80;99.90
27978;DHT22;15314;49.248;6.968;2024-02-26T05:24:51;7.80;99.90
27978;DHT22;15314;49.248;6.968;2024-02-26T05:26:11;7.80;99.90
27978;DHT22;15314;49.248;6.968;2024-02-26T05:27:30;7.80;99.90
27978;DHT22;15314;49.248;6.968;2024-02-26T05:28:49;7.80;99.90
27978;DHT22;15314;49.248;6.968;2024-02-26T05:30:09;7.80;99.90
27978;DHT22;15314;49.248;6.968;2024-02-26T05:31:28;7.80;99.90
27978;DHT22;15314;49.248;6.968;2024-02-26T05:32:47;7.80;99.90
27978;DHT22;15314;49.248;6.968;2024-02-26T05:34:06;7.80;99.90
27978;DHT22;15314;49.248;6.968;2024-02-26T05:35:25;7.80;99.90
27978;DHT22;15314;49.248;6.968;2024-02-26T05:36:45;7.70;99.90
27978;DHT22;15314;49.248;6.968;2024-02-26T05:38:04;7.70;99.90
27978;DHT22;15314;49.248;6.968;2024-02-26T05:39:23;7.60;99.90
27978;DHT22;15314;49.248;6.968;2024-02-26T05:40:42;7.50;99.90
27978;DHT22;15314;49.248;6.968;2024-02-26T05:42:02;7.40;99.90
27978;DHT22;15314;49.248;6.968;2024-02-26T05:43:21;7.40;99.90
27978;DHT22;15314;49.248;6.968;2024-02-26T05:44:41;7.40;99.90
27978;DHT22;15314;49.248;6.968;2024-02-26T05:46:00;7.50;99.90
27978;DHT22;15314;49.248;6.968;2024-02-26T05:47:19;7.50;99.90
27978;DHT22;15314;49.248;6.968;2024-02-26T05:48:38;7.60;99.90
27978;DHT22;15314;49.248;6.968;2024-02-26T05:49:57;7.60;99.90
27978;DHT22;15314;49.248;6.968;2024-02-26T05:51:18;7.80;99.90
27978;DHT22;15314;49.248;6.968;2024-02-26T05:52:38;7.70;99.90
27978;DHT22;15314;49.248;6.968;2024-02-26T05:53:57;7.70;99.90
27978;DHT22;15314;49.248;6.968;2024-02-26T05:55:16;7.70;99.90
27978;DHT22;15314;49.248;6.968;2024-02-26T05:56:36;7.70;99.90
27978;DHT22;15314;49.248;6.968;2024-02-26T05:57:55;7.70;99.90
27978;DHT22;15314;49.248;6.968;2024-02-26T05:59:14;7.80;99.90
27978;DHT22;15314;49.248;6.968;2024-02-26T06:00:34;7.90;99.90
27978;DHT22;15314;49.248;6.968;2024-02-26T06:01:53;7.80;99.90
27978;DHT22;15314;49.248;6.968;2024-02-26T06:03:12;7.70;99.90
27978;DHT22;15314;49.248;6.968;2024-02-26T06:04:32;7.80;99.90
27978;DHT22;15314;49.248;6.968;2024-02-26T06:05:51;7.70;99.90
27978;DHT22;15314;49.248;6.968;2024-02-26T06:07:10;7.60;99.90
27978;DHT22;15314;49.248;6.968;2024-02-26T06:08:29;7.60;99.90
27978;DHT22;15314;49.248;6.968;2024-02-26T06:09:48;7.60;99.90
27978;DHT22;15314;49.248;6.968;2024-02-26T06:11:07;7.60;99.90
27978;DHT22;15314;49.248;6.968;2024-02-26T06:12:27;7.60;99.90
27978;DHT22;15314;49.248;6.968;2024-02-26T06:13:47;7.60;99.90
27978;DHT22;15314;49.248;6.968;2024-02-26T06:15:07;7.70;99.90
27978;DHT22;15314;49.248;6.968;2024-02-26T06:16:26;7.70;99.90
27978;DHT22;15314;49.248;6.968;2024-02-26T06:17:46;7.70;99.90
27978;DHT22;15314;49.248;6.968;2024-02-26T06:19:05;7.60;99.90
27978;DHT22;15314;49.248;6.968;2024-02-26T06:20:24;7.40;99.90
27978;DHT22;15314;49.248;6.968;2024-02-26T06:21:43;7.60;99.90
27978;DHT22;15314;49.248;6.968;2024-02-26T06:23:02;7.60;99.90
27978;DHT22;15314;49.248;6.968;2024-02-26T06:24:21;7.60;99.90
27978;DHT22;15314;49.248;6.968;2024-02-26T06:25:41;7.50;99.90
27978;DHT22;15314;49.248;6.968;2024-02-26T06:27:01;7.50;99.90
27978;DHT22;15314;49.248;6.968;2024-02-26T06:28:20;7.50;99.90
27978;DHT22;15314;49.248;6.968;2024-02-26T06:29:39;7.50;99.90
27978;DHT22;15314;49.248;6.968;2024-02-26T06:30:59;7.60;99.90
27978;DHT22;15314;49.248;6.968;2024-02-26T06:32:18;7.60;99.90
27978;DHT22;15314;49.248;6.968;2024-02-26T06:33:37;7.60;99.90
27978;DHT22;15314;49.248;6.968;2024-02-26T06:34:56;7.60;99.90
27978;DHT22;15314;49.248;6.968;2024-02-26T06:36:16;7.60;99.90
27978;DHT22;15314;49.248;6.968;2024-02-26T06:37:35;7.70;99.90
27978;DHT22;15314;49.248;6.968;2024-02-26T06:38:55;7.60;99.90
27978;DHT22;15314;49.248;6.968;2024-02-26T06:40:14;7.70;99.90
27978;DHT22;15314;49.248;6.968;2024-02-26T06:41:33;7.70;99.90
27978;DHT22;15314;49.248;6.968;2024-02-26T06:42:53;7.70;99.90
27978;DHT22;15314;49.248;6.968;2024-02-26T06:44:13;7.60;99.90
27978;DHT22;15314;49.248;6.968;2024-02-26T06:45:32;7.70;99.90
27978;DHT22;15314;49.248;6.968;2024-02-26T06:46:51;7.70;99.90
27978;DHT22;15314;49.248;6.968;2024-02-26T06:48:11;7.80;99.90
27978;DHT22;15314;49.248;6.968;2024-02-26T06:49:30;7.80;99.90
27978;DHT22;15314;49.248;6.968;2024-02-26T06:50:49;7.90;99.90
27978;DHT22;15314;49.248;6.968;2024-02-26T06:52:09;7.90;99.90
27978;DHT22;15314;49.248;6.968;2024-02-26T06:53:28;7.90;99.90
27978;DHT22;15314;49.248;6.968;2024-02-26T06:54:48;7.90;99.90
27978;DHT22;15314;49.248;6.968;2024-02-26T06:56:10;7.90;99.90
27978;DHT22;15314;49.248;6.968;2024-02-26T06:57:29;8.00;99.90
27978;DHT22;15314;49.248;6.968;2024-02-26T06:58:48;8.00;99.90
27978;DHT22;15314;49.248;6.968;2024-02-26T07:00:08;8.00;99.90
27978;DHT22;15314;49.248;6.968;2024-02-26T07:01:27;8.10;99.90
27978;DHT22;15314;49.248;6.968;2024-02-26T07:02:47;8.10;99.90
27978;DHT22;15314;49.248;6.968;2024-02-26T07:04:06;8.20;99.90
27978;DHT22;15314;49.248;6.968;2024-02-26T07:05:26;8.30;99.90
27978;DHT22;15314;49.248;6.968;2024-02-26T07:06:45;8.20;99.90
27978;DHT22;15314;49.248;6.968;2024-02-26T07:08:06;8.20;99.90
27978;DHT22;15314;49.248;6.968;2024-02-26T07:09:25;8.30;99.90
27978;DHT22;15314;49.248;6.968;2024-02-26T07:10:44;8.30;99.90
27978;DHT22;15314;49.248;6.968;2024-02-26T07:12:04;8.40;99.90
27978;DHT22;15314;49.248;6.968;2024-02-26T07:13:23;8.40;99.90
27978;DHT22;15314;49.248;6.968;2024-02-26T07:14:43;8.40;99.90
27978;DHT22;15314;49.248;6.968;2024-02-26T07:16:02;8.40;99.90
27978;DHT22;15314;49.248;6.968;2024-02-26T07:17:22;8.50;99.90
27978;DHT22;15314;49.248;6.968;2024-02-26T07:18:41;8.60;99.90
27978;DHT22;15314;49.248;6.968;2024-02-26T07:20:00;8.60;99.90
27978;DHT22;15314;49.248;6.968;2024-02-26T07:21:19;8.50;99.90
27978;DHT22;15314;49.248;6.968;2024-02-26T07:22:38;8.60;99.90
27978;DHT22;15314;49.248;6.968;2024-02-26T07:23:57;8.60;99.90
27978;DHT22;15314;49.248;6.968;2024-02-26T07:25:17;8.70;99.90
27978;DHT22;15314;49.248;6.968;2024-02-26T07:26:36;8.70;99.90
27978;DHT22;15314;49.248;6.968;2024-02-26T07:27:55;8.70;99.90
27978;DHT22;15314;49.248;6.968;2024-02-26T07:29:15;8.80;99.90
27978;DHT22;15314;49.248;6.968;2024-02-26T07:30:34;8.90;99.90
27978;DHT22;15314;49.248;6.968;2024-02-26T07:31:53;8.80;99.90
27978;DHT22;15314;49.248;6.968;2024-02-26T07:33:12;8.80;99.90
27978;DHT22;15314;49.248;6.968;2024-02-26T07:34:31;8.90;99.90
27978;DHT22;15314;49.248;6.968;2024-02-26T07:35:50;8.80;99.90
27978;DHT22;15314;49.248;6.968;2024-02-26T07:37:11;8.80;99.90
27978;DHT22;15314;49.248;6.968;2024-02-26T07:38:30;8.80;99.90
27978;DHT22;15314;49.248;6.968;2024-02-26T07:39:49;8.90;99.90
27978;DHT22;15314;49.248;6.968;2024-02-26T07:41:08;8.80;99.90
27978;DHT22;15314;49.248;6.968;2024-02-26T07:42:27;8.80;99.90
27978;DHT22;15314;49.248;6.968;2024-02-26T07:43:47;8.90;99.90
27978;DHT22;15314;49.248;6.968;2024-02-26T07:45:07;8.90;99.90
27978;DHT22;15314;49.248;6.968;2024-02-26T07:46:27;8.90;99.90
27978;DHT22;15314;49.248;6.968;2024-02-26T07:47:49;8.80;99.90
27978;DHT22;15314;49.248;6.968;2024-02-26T07:49:10;8.90;99.90
27978;DHT22;15314;49.248;6.968;2024-02-26T07:50:30;9.00;99.90
27978;DHT22;15314;49.248;6.968;2024-02-26T07:51:49;8.80;99.90
27978;DHT22;15314;49.248;6.968;2024-02-26T07:53:08;8.80;99.90
27978;DHT22;15314;49.248;6.968;2024-02-26T07:54:27;8.90;99.90
27978;DHT22;15314;49.248;6.968;2024-02-26T07:55:46;9.00;99.90
27978;DHT22;15314;49.248;6.968;2024-02-26T07:57:06;9.00;99.90
27978;DHT22;15314;49.248;6.968;2024-02-26T07:58:26;9.10;99.90
27978;DHT22;15314;49.248;6.968;2024-02-26T07:59:45;9.10;99.90
27978;DHT22;15314;49.248;6.968;2024-02-26T08:01:08;9.00;99.90
27978;DHT22;15314;49.248;6.968;2024-02-26T08:02:28;9.10;99.90
27978;DHT22;15314;49.248;6.968;2024-02-26T08:03:47;9.10;99.90
27978;DHT22;15314;49.248;6.968;2024-02-26T08:05:06;9.10;99.90
27978;DHT22;15314;49.248;6.968;2024-02-26T08:06:26;9.10;99.90
27978;DHT22;15314;49.248;6.968;2024-02-26T08:07:46;9.20;99.90
27978;DHT22;15314;49.248;6.968;2024-02-26T08:09:06;9.20;99.90
27978;DHT22;15314;49.248;6.968;2024-02-26T08:10:25;9.30;99.90
27978;DHT22;15314;49.248;6.968;2024-02-26T08:11:44;9.50;99.90
27978;DHT22;15314;49.248;6.968;2024-02-26T08:13:03;9.50;99.90
27978;DHT22;15314;49.248;6.968;2024-02-26T08:14:25;9.60;99.90
27978;DHT22;15314;49.248;6.968;2024-02-26T08:15:44;9.70;99.90
27978;DHT22;15314;49.248;6.968;2024-02-26T08:17:04;9.70;99.90
27978;DHT22;15314;49.248;6.968;2024-02-26T08:18:23;9.80;99.90
27978;DHT22;15314;49.248;6.968;2024-02-26T08:19:42;9.80;99.90
27978;DHT22;15314;49.248;6.968;2024-02-26T08:21:01;9.90;99.90
27978;DHT22;15314;49.248;6.968;2024-02-26T08:22:20;9.80;99.90
27978;DHT22;15314;49.248;6.968;2024-02-26T08:23:39;9.80;99.90
27978;DHT22;15314;49.248;6.968;2024-02-26T08:24:58;9.90;99.90
27978;DHT22;15314;49.248;6.968;2024-02-26T08:26:17;10.20;99.90
27978;DHT22;15314;49.248;6.968;2024-02-26T08:27:39;10.40;99.90
27978;DHT22;15314;49.248;6.968;2024-02-26T08:28:58;10.60;99.90